createdAt,value
2023-01-18T00:01:19.219Z,2.08
2023-01-18T00:03:46.268Z,2.06
2023-01-18T00:06:13.061Z,2.07
2023-01-18T00:08:41.105Z,2.05
2023-01-18T00:11:09.558Z,1.99
2023-01-18T00:13:36.451Z,1.98
2023-01-18T00:16:08.102Z,1.99
2023-01-18T00:18:37.953Z,1.99
2023-01-18T00:21:06.015Z,1.97
2023-01-18T00:23:33.137Z,2.01
2023-01-18T00:26:03.548Z,2.03
2023-01-18T00:28:30.243Z,2.05
2023-01-18T00:30:57.288Z,2.08
2023-01-18T00:33:24.347Z,2.08
2023-01-18T00:35:57.580Z,2.11
2023-01-18T00:38:24.728Z,2.11
2023-01-18T00:40:51.930Z,2.14
2023-01-18T00:43:37.487Z,2.11
2023-01-18T00:46:05.291Z,2.07
2023-01-18T00:48:31.967Z,2.08
2023-01-18T00:50:58.819Z,2.11
2023-01-18T00:53:25.551Z,2.12
2023-01-18T00:55:52.275Z,2.14
2023-01-18T00:58:19.360Z,2.16
2023-01-18T01:00:48.025Z,2.14
2023-01-18T01:03:15.299Z,2.15
2023-01-18T01:06:00.925Z,2.15
2023-01-18T01:08:27.850Z,2.16
2023-01-18T01:11:04.357Z,2.17
2023-01-18T01:13:49.855Z,2.19
2023-01-18T01:16:35.239Z,2.19
2023-01-18T01:19:20.626Z,2.17
2023-01-18T01:22:07.426Z,2.17
2023-01-18T01:24:52.495Z,2.17
2023-01-18T01:27:19.248Z,2.18
2023-01-18T01:29:46.005Z,2.15
2023-01-18T01:32:13.248Z,2.14
2023-01-18T01:34:40.224Z,2.14
2023-01-18T01:37:06.970Z,2.14
2023-01-18T01:39:33.688Z,2.16
2023-01-18T01:42:00.486Z,1.71
2023-01-18T01:44:34.399Z,2.17
2023-01-18T01:47:14.413Z,2.17
2023-01-18T01:49:45.049Z,2.19
2023-01-18T01:52:18.128Z,2.20
2023-01-18T01:54:59.937Z,2.19
2023-01-18T01:57:32.875Z,2.20
2023-01-18T02:00:01.349Z,2.22
2023-01-18T02:02:29.777Z,2.22
2023-01-18T02:04:57.967Z,2.21
2023-01-18T02:07:26.403Z,2.21
2023-01-18T02:09:53.676Z,2.21
2023-01-18T02:12:20.495Z,2.24
2023-01-18T02:14:47.735Z,2.25
2023-01-18T02:17:20.418Z,2.25
2023-01-18T02:19:53.450Z,2.25
2023-01-18T02:22:23.089Z,2.26
2023-01-18T02:25:07.897Z,2.28
2023-01-18T02:27:46.007Z,2.30
2023-01-18T02:30:12.867Z,2.28
2023-01-18T02:33:02.648Z,2.25
2023-01-18T02:35:34.301Z,2.23
2023-01-18T02:38:10.578Z,2.25
2023-01-18T02:41:00.709Z,2.26
2023-01-18T02:43:46.207Z,2.25
2023-01-18T02:46:33.845Z,2.27
2023-01-18T02:49:03.887Z,2.27
2023-01-18T02:51:30.678Z,2.27
2023-01-18T02:53:57.605Z,2.26
2023-01-18T02:56:30.288Z,2.24
2023-01-18T02:58:59.768Z,2.23
2023-01-18T03:01:34.111Z,2.19
2023-01-18T03:04:06.217Z,2.11
2023-01-18T03:06:33.373Z,2.06
2023-01-18T03:09:00.886Z,2.04
2023-01-18T03:11:36.247Z,2.03
2023-01-18T03:14:23.227Z,2.02
2023-01-18T03:16:58.238Z,2.00
2023-01-18T03:19:49.756Z,1.98
2023-01-18T03:22:16.529Z,1.99
2023-01-18T03:24:44.417Z,2.03
2023-01-18T03:27:30.487Z,2.07
2023-01-18T03:30:15.698Z,2.10
2023-01-18T03:33:01.038Z,2.12
2023-01-18T03:35:28.709Z,2.13
2023-01-18T03:37:56.495Z,2.14
2023-01-18T03:40:26.394Z,2.15
2023-01-18T03:42:53.092Z,2.16
2023-01-18T03:45:25.224Z,2.18
2023-01-18T03:47:52.182Z,2.15
2023-01-18T03:50:20.325Z,2.13
2023-01-18T03:52:50.613Z,2.14
2023-01-18T03:55:40.287Z,2.15
2023-01-18T03:58:11.158Z,2.15
2023-01-18T04:00:38.824Z,2.17
2023-01-18T04:03:05.640Z,2.18
2023-01-18T04:05:32.489Z,2.18
2023-01-18T04:07:59.131Z,2.20
2023-01-18T04:10:26.822Z,2.20
2023-01-18T04:12:53.608Z,2.22
2023-01-18T04:15:20.428Z,2.23
2023-01-18T04:17:49.927Z,2.24
2023-01-18T04:20:16.737Z,2.24
2023-01-18T04:22:43.408Z,2.22
2023-01-18T04:25:10.212Z,2.22
2023-01-18T04:27:36.888Z,2.19
2023-01-18T04:30:06.369Z,2.21
2023-01-18T04:32:33.128Z,2.22
2023-01-18T04:34:59.914Z,2.23
2023-01-18T04:37:34.162Z,2.24
2023-01-18T04:40:01.565Z,2.26
2023-01-18T04:42:28.782Z,2.25
2023-01-18T04:44:55.611Z,2.25
2023-01-18T04:47:22.286Z,1.95
2023-01-18T04:49:49.046Z,2.24
2023-01-18T04:52:16.841Z,2.25
2023-01-18T04:54:44.529Z,2.28
2023-01-18T04:57:11.178Z,2.28
2023-01-18T04:59:39.447Z,2.27
2023-01-18T05:02:06.107Z,2.26
2023-01-18T05:04:32.853Z,2.27
2023-01-18T05:07:02.350Z,2.23
2023-01-18T05:09:29.142Z,2.21
2023-01-18T05:11:55.864Z,2.19
2023-01-18T05:14:22.627Z,2.17
2023-01-18T05:16:49.299Z,2.17
2023-01-18T05:19:16.248Z,2.20
2023-01-18T05:21:43.028Z,2.21
2023-01-18T05:24:09.766Z,2.23
2023-01-18T05:26:36.520Z,2.25
2023-01-18T05:29:03.398Z,2.25
2023-01-18T05:31:30.063Z,2.26
2023-01-18T05:33:57.744Z,2.28
2023-01-18T05:36:24.569Z,2.29
2023-01-18T05:38:51.372Z,2.28
2023-01-18T05:41:18.571Z,2.28
2023-01-18T05:43:45.432Z,2.30
2023-01-18T05:46:12.231Z,2.33
2023-01-18T05:48:38.980Z,2.33
2023-01-18T05:51:10.487Z,2.35
2023-01-18T05:53:37.659Z,2.35
2023-01-18T05:56:05.366Z,2.33
2023-01-18T05:58:32.423Z,2.32
2023-01-18T06:00:59.162Z,2.33
2023-01-18T06:03:26.107Z,2.36
2023-01-18T06:05:52.969Z,2.40
2023-01-18T06:08:20.183Z,2.40
2023-01-18T06:10:54.497Z,2.41
2023-01-18T06:13:21.904Z,2.42
2023-01-18T06:15:49.727Z,2.39
2023-01-18T06:18:16.760Z,2.37
2023-01-18T06:20:43.469Z,2.40
2023-01-18T06:23:10.331Z,2.41
2023-01-18T06:25:37.128Z,2.41
2023-01-18T06:28:05.189Z,2.40
2023-01-18T06:30:32.357Z,2.41
2023-01-18T06:33:04.973Z,2.40
2023-01-18T06:35:31.740Z,2.35
2023-01-18T06:37:59.038Z,2.36
2023-01-18T06:40:26.037Z,2.35
2023-01-18T06:42:52.782Z,2.33
2023-01-18T06:45:22.068Z,2.32
2023-01-18T06:47:49.655Z,2.09
2023-01-18T06:50:16.654Z,2.30
2023-01-18T06:52:44.090Z,2.32
2023-01-18T06:55:11.637Z,2.35
2023-01-18T06:57:38.654Z,2.36
2023-01-18T07:00:06.449Z,2.37
2023-01-18T07:02:33.772Z,2.13
2023-01-18T07:05:00.501Z,2.33
2023-01-18T07:07:27.472Z,2.35
2023-01-18T07:09:54.287Z,2.37
2023-01-18T07:12:21.230Z,2.40
2023-01-18T07:14:48.873Z,2.43
2023-01-18T07:17:15.848Z,2.47
2023-01-18T07:19:42.730Z,2.52
2023-01-18T07:22:09.456Z,2.12
2023-01-18T07:24:36.246Z,2.59
2023-01-18T07:27:03.443Z,2.61
2023-01-18T07:29:30.696Z,2.62
2023-01-18T07:31:57.751Z,2.64
2023-01-18T07:34:24.568Z,2.70
2023-01-18T07:36:51.291Z,2.76
2023-01-18T07:39:18.097Z,2.78
2023-01-18T07:41:44.749Z,2.81
2023-01-18T07:44:11.948Z,2.83
2023-01-18T07:46:38.889Z,2.80
2023-01-18T07:49:05.950Z,2.79
2023-01-18T07:51:33.373Z,2.82
2023-01-18T07:54:00.153Z,2.82
2023-01-18T07:56:27.367Z,2.84
2023-01-18T07:58:54.457Z,2.88
2023-01-18T08:01:22.133Z,2.90
2023-01-18T08:03:49.783Z,2.95
2023-01-18T08:06:21.259Z,3.03
2023-01-18T08:08:51.318Z,3.10
2023-01-18T08:11:21.810Z,3.16
2023-01-18T08:13:49.410Z,3.19
2023-01-18T08:16:17.866Z,3.31
2023-01-18T08:18:48.968Z,3.44
2023-01-18T08:21:17.417Z,3.92
2023-01-18T08:23:44.329Z,4.50
2023-01-18T08:26:15.023Z,4.82
2023-01-18T08:28:42.307Z,5.67
2023-01-18T08:31:12.033Z,5.92
2023-01-18T08:33:39.816Z,5.86
2023-01-18T08:36:10.661Z,5.83
2023-01-18T08:38:37.364Z,5.91
2023-01-18T08:41:06.977Z,5.86
2023-01-18T08:43:34.977Z,5.73
2023-01-18T08:46:02.452Z,5.61
2023-01-18T09:06:17.143Z,4.96
2023-01-18T09:08:46.596Z,5.07
2023-01-18T09:11:13.427Z,5.12
2023-01-18T09:13:54.620Z,5.14
2023-01-18T09:16:26.253Z,5.14
2023-01-18T09:18:55.542Z,5.12
2023-01-18T09:21:22.507Z,5.01
2023-01-18T09:23:49.720Z,4.95
2023-01-18T09:26:17.244Z,4.77
2023-01-18T09:28:47.395Z,4.73
2023-01-18T09:31:15.148Z,4.80
2023-01-18T09:33:48.203Z,5.02
2023-01-18T09:36:21.835Z,5.39
2023-01-18T09:38:51.219Z,5.68
2023-01-18T09:41:33.418Z,5.82
2023-01-18T09:44:02.678Z,5.94
2023-01-18T09:46:33.629Z,6.00
2023-01-18T09:49:02.750Z,5.91
2023-01-18T09:51:32.406Z,5.83
2023-01-18T09:54:11.354Z,5.62
2023-01-18T09:56:45.673Z,5.44
2023-01-18T09:59:22.044Z,5.22
2023-01-18T10:01:49.965Z,5.05
2023-01-18T10:04:51.217Z,4.93
2023-01-18T10:07:18.735Z,4.93
2023-01-18T10:09:49.753Z,4.88
2023-01-18T10:12:21.985Z,4.85
2023-01-18T10:14:48.849Z,4.80
2023-01-18T10:17:26.087Z,4.79
2023-01-18T10:19:53.102Z,4.79
2023-01-18T10:22:19.846Z,4.77
2023-01-18T10:25:06.865Z,4.75
2023-01-18T10:27:55.540Z,4.75
2023-01-18T10:30:28.981Z,4.70
2023-01-18T10:32:58.676Z,4.72
2023-01-18T10:35:33.490Z,4.80
2023-01-18T10:38:02.917Z,4.89
2023-01-18T10:40:29.586Z,4.99
2023-01-18T10:43:04.506Z,5.11
2023-01-18T10:45:33.124Z,5.25
2023-01-18T10:48:13.066Z,5.34
2023-01-18T10:50:42.407Z,5.45
2023-01-18T10:53:27.627Z,5.54
2023-01-18T10:56:05.822Z,5.56
2023-01-18T10:58:34.280Z,5.60
2023-01-18T11:01:02.349Z,5.63
2023-01-18T11:03:36.647Z,5.74
2023-01-18T11:06:06.065Z,5.82
2023-01-18T11:08:34.355Z,5.86
2023-01-18T11:11:04.179Z,5.90
2023-01-18T11:13:33.260Z,5.93
2023-01-18T11:16:10.732Z,5.60
2023-01-18T11:18:38.021Z,5.70
2023-01-18T11:21:09.424Z,5.55
2023-01-18T11:23:37.388Z,5.39
2023-01-18T11:26:04.472Z,4.97
2023-01-18T11:29:00.616Z,5.21
2023-01-18T11:31:47.705Z,5.22
2023-01-18T11:34:28.579Z,5.29
2023-01-18T11:36:56.334Z,5.39
2023-01-18T11:39:23.133Z,5.46
2023-01-18T11:42:09.908Z,5.51
2023-01-18T11:44:38.778Z,5.55
2023-01-18T11:47:10.305Z,5.54
2023-01-18T11:49:43.785Z,5.01
2023-01-18T11:52:22.155Z,5.46
2023-01-18T11:54:53.443Z,5.52
2023-01-18T11:57:20.463Z,5.55
2023-01-18T11:59:48.057Z,5.57
2023-01-18T12:02:33.854Z,5.58
2023-01-18T12:05:25.868Z,5.60
2023-01-18T12:08:10.921Z,5.56
2023-01-18T12:10:49.817Z,5.50
2023-01-18T12:13:35.096Z,5.22
2023-01-18T12:16:01.826Z,4.76
2023-01-18T12:18:47.300Z,4.49
2023-01-18T12:21:16.856Z,4.23
2023-01-18T12:23:46.382Z,4.08
2023-01-18T12:26:24.856Z,3.88
2023-01-18T12:29:04.079Z,3.73
2023-01-18T12:31:31.003Z,3.59
2023-01-18T12:34:15.177Z,3.48
2023-01-18T12:36:46.196Z,3.40
2023-01-18T12:39:25.175Z,3.39
2023-01-18T12:42:04.290Z,3.43
2023-01-18T12:44:31.115Z,3.48
2023-01-18T12:47:03.870Z,3.53
2023-01-18T12:49:35.057Z,3.58
2023-01-18T12:52:18.089Z,3.62
2023-01-18T12:54:56.384Z,3.60
2023-01-18T12:57:24.238Z,3.56
2023-01-18T12:59:50.933Z,3.54
2023-01-18T13:02:33.245Z,3.47
2023-01-18T13:05:12.493Z,3.42
2023-01-18T13:07:42.303Z,3.42
2023-01-18T13:10:23.375Z,3.39
2023-01-18T13:12:51.776Z,3.37
2023-01-18T13:15:22.277Z,3.38
2023-01-18T13:17:51.955Z,3.39
2023-01-18T13:20:23.066Z,3.35
2023-01-18T13:23:08.740Z,3.27
2023-01-18T13:25:53.523Z,3.30
2023-01-18T13:28:21.336Z,3.25
2023-01-18T13:30:56.653Z,3.25
2023-01-18T13:33:28.138Z,3.32
2023-01-18T13:36:01.867Z,3.38
2023-01-18T13:38:40.938Z,3.42
2023-01-18T13:41:11.185Z,3.48
2023-01-18T13:43:41.488Z,3.49
2023-01-18T13:46:08.680Z,3.48
2023-01-18T13:48:55.435Z,3.47
2023-01-18T13:51:40.662Z,3.50
2023-01-18T13:54:08.281Z,3.51
2023-01-18T13:56:36.797Z,3.53
2023-01-18T13:59:12.802Z,3.56
2023-01-18T14:01:43.217Z,3.59
2023-01-18T14:04:10.946Z,3.59
2023-01-18T14:06:42.995Z,3.63
2023-01-18T14:09:14.677Z,3.67
2023-01-18T14:11:45.985Z,3.76
2023-01-18T14:14:12.707Z,3.82
2023-01-18T14:16:53.881Z,3.87
2023-01-18T14:19:21.684Z,3.89
2023-01-18T14:21:54.239Z,3.87
2023-01-18T14:24:30.116Z,3.88
2023-01-18T14:26:59.188Z,3.90
2023-01-18T14:29:25.867Z,3.88
2023-01-18T14:31:54.751Z,3.86
2023-01-18T14:34:30.774Z,3.85
2023-01-18T14:36:57.927Z,3.86
2023-01-18T14:39:24.944Z,3.88
2023-01-18T14:41:58.848Z,3.88
2023-01-18T14:44:40.745Z,3.87
2023-01-18T14:47:24.255Z,3.86
2023-01-18T14:49:52.235Z,3.84
2023-01-18T14:52:19.069Z,3.80
2023-01-18T14:54:56.018Z,3.77
2023-01-18T14:57:23.720Z,3.71
2023-01-18T15:00:13.148Z,3.72
2023-01-18T15:02:40.153Z,3.73
2023-01-18T15:05:10.869Z,3.72
2023-01-18T15:07:39.402Z,3.70
2023-01-18T15:10:09.577Z,3.69
2023-01-18T15:12:38.312Z,3.67
2023-01-18T15:15:11.739Z,3.64
2023-01-18T15:17:40.692Z,3.62
2023-01-18T15:20:11.993Z,3.61
2023-01-18T15:22:40.621Z,3.63
2023-01-18T15:25:14.908Z,3.63
2023-01-18T15:27:47.704Z,3.63
2023-01-18T15:30:14.687Z,3.61
2023-01-18T15:32:42.604Z,3.60
2023-01-18T15:35:13.534Z,3.59
2023-01-18T15:37:40.422Z,3.58
2023-01-18T15:40:13.140Z,3.58
2023-01-18T15:42:45.512Z,3.59
2023-01-18T15:45:29.269Z,3.56
2023-01-18T15:48:07.424Z,3.26
2023-01-18T15:50:43.496Z,3.48
2023-01-18T15:53:14.720Z,3.47
2023-01-18T15:55:48.255Z,3.46
2023-01-18T15:58:24.213Z,3.47
2023-01-18T16:00:55.954Z,3.48
2023-01-18T16:03:28.043Z,3.46
2023-01-18T16:06:11.281Z,3.46
2023-01-18T16:08:39.255Z,3.46
2023-01-18T16:11:06.240Z,3.45
2023-01-18T16:13:34.240Z,3.45
2023-01-18T16:16:16.346Z,3.48
2023-01-18T16:18:45.095Z,3.49
2023-01-18T16:21:21.030Z,3.50
2023-01-18T16:23:49.615Z,3.49
2023-01-18T16:26:18.911Z,3.50
2023-01-18T16:28:45.760Z,3.48
2023-01-18T16:31:12.667Z,3.47
2023-01-18T16:33:40.226Z,3.47
2023-01-18T16:36:18.355Z,3.46
2023-01-18T16:38:45.390Z,3.45
2023-01-18T16:41:13.061Z,3.45
2023-01-18T16:43:42.317Z,3.45
2023-01-18T16:46:11.090Z,3.42
2023-01-18T16:48:37.907Z,3.43
2023-01-18T16:51:11.923Z,3.44
2023-01-18T16:53:38.878Z,3.45
2023-01-18T16:56:05.868Z,3.48
2023-01-18T16:58:35.636Z,3.47
2023-01-18T17:01:07.269Z,3.46
2023-01-18T17:03:36.152Z,3.44
2023-01-18T17:06:03.301Z,3.44
2023-01-18T17:08:30.149Z,3.42
2023-01-18T17:10:57.056Z,3.40
2023-01-18T17:13:24.285Z,3.36
2023-01-18T17:15:52.147Z,3.38
2023-01-18T17:18:25.685Z,3.38
2023-01-18T17:20:53.421Z,3.38
2023-01-18T17:23:22.876Z,3.40
2023-01-18T17:25:49.737Z,3.40
2023-01-18T17:28:17.203Z,3.40
2023-01-18T17:30:45.173Z,3.38
2023-01-18T17:33:16.800Z,3.36
2023-01-18T17:35:43.607Z,3.35
2023-01-18T17:38:22.109Z,3.36
2023-01-18T17:40:49.812Z,3.35
2023-01-18T17:43:36.545Z,3.33
2023-01-18T17:46:04.618Z,3.33
2023-01-18T17:48:31.427Z,3.32
2023-01-18T17:50:58.853Z,3.32
2023-01-18T17:53:26.437Z,3.32
2023-01-18T17:55:53.421Z,3.33
2023-01-18T17:58:20.150Z,3.35
2023-01-18T18:00:47.263Z,3.38
2023-01-18T18:03:16.638Z,3.37
2023-01-18T18:05:43.848Z,3.15
2023-01-18T18:08:10.628Z,3.39
2023-01-18T18:10:37.393Z,3.40
2023-01-18T18:13:04.369Z,3.42
2023-01-18T18:15:31.443Z,3.43
2023-01-18T18:17:58.176Z,3.42
2023-01-18T18:20:25.028Z,3.40
2023-01-18T18:22:51.825Z,3.40
2023-01-18T18:25:18.858Z,3.40
2023-01-18T18:27:47.024Z,3.41
2023-01-18T18:30:14.741Z,3.40
2023-01-18T18:32:41.534Z,3.39
2023-01-18T18:35:23.845Z,3.40
2023-01-18T18:37:52.267Z,3.37
2023-01-18T18:40:19.418Z,3.36
2023-01-18T18:42:56.399Z,3.34
2023-01-18T18:45:27.736Z,3.32
2023-01-18T18:47:54.459Z,3.32
2023-01-18T18:50:21.229Z,3.32
2023-01-18T18:52:48.143Z,3.33
2023-01-18T18:55:14.983Z,3.31
2023-01-18T18:57:41.847Z,3.30
2023-01-18T19:00:08.989Z,3.31
2023-01-18T19:02:38.822Z,3.30
2023-01-18T19:05:06.163Z,3.31
2023-01-18T19:07:36.070Z,3.30
2023-01-18T19:10:03.516Z,3.32
2023-01-18T19:12:32.753Z,3.30
2023-01-18T19:14:59.637Z,3.29
2023-01-18T19:17:30.806Z,3.28
2023-01-18T19:19:58.220Z,3.27
2023-01-18T19:22:27.184Z,3.27
2023-01-18T19:24:53.988Z,3.03
2023-01-18T19:27:24.734Z,3.27
2023-01-18T19:29:53.506Z,3.25
2023-01-18T19:32:20.512Z,3.23
2023-01-18T19:34:47.337Z,3.23
2023-01-18T19:37:14.120Z,3.25
2023-01-18T19:39:40.934Z,3.25
2023-01-18T19:42:07.718Z,3.26
2023-01-18T19:44:34.514Z,3.26
2023-01-18T19:47:01.728Z,3.26
2023-01-18T19:49:28.545Z,3.24
2023-01-18T19:51:55.916Z,3.21
2023-01-18T19:54:22.850Z,3.21
2023-01-18T19:56:49.717Z,3.18
2023-01-18T19:59:19.661Z,3.13
2023-01-18T20:01:46.527Z,3.08
2023-01-18T20:04:13.626Z,3.04
2023-01-18T20:06:43.495Z,3.00
2023-01-18T20:09:19.554Z,3.00
2023-01-18T20:11:48.924Z,2.92
2023-01-18T20:14:15.976Z,2.89
2023-01-18T20:16:44.934Z,2.89
2023-01-18T20:19:13.050Z,2.87
2023-01-18T20:21:39.824Z,2.81
2023-01-18T20:24:06.725Z,2.79
2023-01-18T20:26:36.916Z,2.75
2023-01-18T20:29:07.011Z,2.71
2023-01-18T20:31:38.191Z,2.67
2023-01-18T20:34:05.388Z,2.67
2023-01-18T20:36:35.016Z,2.65
2023-01-18T20:39:02.387Z,2.65
2023-01-18T20:41:32.087Z,2.65
2023-01-18T20:43:58.811Z,2.67
2023-01-18T20:46:25.529Z,2.71
2023-01-18T20:48:52.269Z,2.76
2023-01-18T20:51:19.053Z,2.78
2023-01-18T20:53:45.977Z,2.80
2023-01-18T20:56:27.818Z,2.80
2023-01-18T20:58:56.222Z,2.81
2023-01-18T21:01:23.134Z,2.84
2023-01-18T21:03:56.348Z,2.86
2023-01-18T21:06:25.359Z,2.88
2023-01-18T21:08:52.778Z,2.88
2023-01-18T21:11:23.169Z,2.91
2023-01-18T21:13:50.596Z,2.93
2023-01-18T21:16:17.742Z,2.95
2023-01-18T21:18:44.965Z,2.97
2023-01-18T21:21:11.745Z,2.98
2023-01-18T21:23:41.834Z,2.96
2023-01-18T21:26:10.212Z,2.95
2023-01-18T21:28:39.419Z,2.93
2023-01-18T21:31:06.588Z,2.94
2023-01-18T21:33:33.949Z,2.95
2023-01-18T21:36:08.828Z,2.94
2023-01-18T21:38:35.789Z,2.95
2023-01-18T21:41:22.715Z,2.96
2023-01-18T21:44:08.727Z,2.94
2023-01-18T21:46:36.477Z,2.92
2023-01-18T21:49:04.028Z,2.92
2023-01-18T21:51:49.451Z,2.94
2023-01-18T21:54:16.264Z,2.97
2023-01-18T21:56:45.906Z,2.99
2023-01-18T21:59:13.297Z,2.97
2023-01-18T22:01:44.420Z,2.97
2023-01-18T22:04:31.548Z,2.97
2023-01-18T22:06:59.685Z,2.97
2023-01-18T22:09:27.345Z,2.99
2023-01-18T22:11:57.588Z,3.00
2023-01-18T22:14:25.186Z,2.99
2023-01-18T22:16:52.132Z,2.99
2023-01-18T22:19:21.989Z,2.99
2023-01-18T22:21:49.108Z,3.01
2023-01-18T22:24:16.538Z,3.02
2023-01-18T22:26:44.895Z,3.02
2023-01-18T22:29:11.978Z,3.00
2023-01-18T22:31:46.277Z,3.00
2023-01-18T22:34:18.282Z,3.01
2023-01-18T22:36:45.057Z,3.00
2023-01-18T22:39:12.792Z,3.01
2023-01-18T22:41:39.747Z,3.00
2023-01-18T22:44:06.616Z,3.01
2023-01-18T22:46:33.496Z,3.03
2023-01-18T22:49:00.271Z,3.02
2023-01-18T22:51:29.149Z,3.03
2023-01-18T22:53:58.459Z,3.03
2023-01-18T22:56:26.044Z,3.00
2023-01-18T22:58:52.870Z,3.01
2023-01-18T23:01:25.193Z,3.01
2023-01-18T23:03:53.682Z,3.02
2023-01-18T23:06:21.059Z,2.98
2023-01-18T23:08:48.188Z,2.97
2023-01-18T23:11:16.548Z,2.96
2023-01-18T23:13:44.291Z,2.94
2023-01-18T23:16:32.957Z,2.95
2023-01-18T23:18:59.847Z,2.95
2023-01-18T23:21:26.542Z,2.94
2023-01-18T23:23:53.297Z,2.93
2023-01-18T23:26:20.076Z,2.69
2023-01-18T23:28:47.188Z,2.92
2023-01-18T23:31:16.016Z,2.92
2023-01-18T23:33:43.342Z,2.91
2023-01-18T23:36:13.096Z,2.92
2023-01-18T23:38:58.351Z,2.93
2023-01-18T23:41:43.574Z,2.95
2023-01-18T23:44:28.784Z,2.96
2023-01-18T23:47:14.076Z,2.96
2023-01-18T23:49:59.597Z,2.97
2023-01-18T23:52:45.367Z,2.99
2023-01-18T23:55:12.189Z,2.98
2023-01-18T23:57:39.091Z,2.97
